Elkhart, IN (46517)

9:22 PM EDT on September 21, 2014 (GMT -0400)
East Jackson Blvd | Change Station
CLOSE
Current Station
Personal Weather Station
Location: Elkhart, IN
Elevation: 753 ft
Nearby Weather Stations

Elev 753 ft 41.69 °N, 85.94 °W | Updated 2 seconds ago

Overcast
Overcast
54.9 °F
Feels Like 54.9 °F
N
6.9
Wind Variable Wind from NE
Gusts 6.9 mph

Today
High -- | Low -- °F
--% Chance of Precip.
Yesterday
High -- | Low -- °F
Precip. -- in
7:30 AM 7:42 PM
Waning Crescent, 4% visible
Pressure 30.06 in
Visibility 10.0 miles
Clouds Overcast 4900 ft
Dew Point 50 °F
Humidity 84%
Rainfall 0.10 in
Snow Depth Not available.
UV 0 out of 12
Pollen 3.20 out of 12
Air Quality Not available.
Flu Activity Not available.
METAR KSBN 220054Z 35013KT 10SM OVC049 13/09 A3006 RMK AO2 SLP179 T01330089

More Conditions Fewer Conditions

Pressure 30.06 in
Visibility 10.0 miles
Clouds Overcast 4900 ft
Dew Point 50 °F
Humidity 84%
Rainfall 0.10 in
Snow Depth Not available.
UV 0 out of 12
Pollen 3.20 out of 12
Air Quality Not available.
Flu Activity Not available.
METAR KSBN 220054Z 35013KT 10SM OVC049 13/09 A3006 RMK AO2 SLP179 T01330089

More Conditions Fewer Conditions

10-Day Weather Forecast

Almanac

Astronomy

Sep. 21, 2014 Rise Set
Actual Time 7:30 AM EDT 7:42 PM EDT
Civil Twilight 7:02 AM EDT 8:10 PM EDT
Nautical Twilight 6:30 AM EDT 8:43 PM EDT
Astronomical Twilight 5:56 AM EDT 9:16 PM EDT
Moon 5:01 AM EDT (9/21) 6:19 PM EDT (9/21)
Length of Visible Light 13h 07m
Length of Day
12h 12m
Tomorrow will be 2m 46s shorter.
Waning Crescent, 4% of the Moon is Illuminated
Today
Waning Crescent
Sep 24
New
Oct 1
First Quarter
Oct 8
Full
Oct 15
Last Quarter

Today's Extremes

State Highs State Lows

Community

WunderPhotos

Upload Photos

1,755,342 photos uploaded!

WunderBlogs® & News

Nearby

Snow Depth

Station Depth Elevation
No new snow has been reported.

Earthquake Activity

City Distance Mag. Time & Date
No recent earthquake activity has been reported nearby.
Minimum magnitude displayed is 2.5.

Coastal Water Temperatures

Place Temperature
No Stations Reporting

Nearby Weather Stations